Time,TemperatureF,DewpointF,PressureIn,WindDirection,WindDirectionDegrees,WindSpeedMPH,WindSpeedGustMPH,Humidity,HourlyPrecipIn,Conditions,Clouds,dailyrainin,SolarRadiationWatts/m^2,SoftwareType,DateUTC
2013-05-03 00:01:00,73.0,17.0,-100.00,ENE,73,13.0,26.0,12,0.00,,,-99.99,1.000000,,2013-05-03 07:01:00,
2013-05-03 00:32:00,72.0,18.0,-100.00,East,90,10.0,29.0,13,0.00,,,-99.99,1.000000,,2013-05-03 07:32:00,
2013-05-03 00:42:00,72.0,18.0,-100.00,East,90,10.0,29.0,13,0.00,,,-99.99,1.000000,,2013-05-03 07:42:00,
2013-05-03 00:52:00,72.0,18.0,-100.00,East,90,10.0,29.0,13,0.00,,,-99.99,1.000000,,2013-05-03 07:52:00,
2013-05-03 01:01:00,72.0,18.0,-100.00,East,90,10.0,29.0,13,0.00,,,-99.99,1.000000,,2013-05-03 08:01:00,
2013-05-03 01:32:00,70.0,19.0,-100.00,East,88,13.0,29.0,14,0.00,,,0.00,1.000000,,2013-05-03 08:32:00,
2013-05-03 01:42:00,70.0,19.0,-100.00,East,88,13.0,29.0,14,0.00,,,0.00,1.000000,,2013-05-03 08:42:00,
2013-05-03 01:52:00,70.0,19.0,-100.00,East,88,13.0,29.0,14,0.00,,,0.00,1.000000,,2013-05-03 08:52:00,
2013-05-03 02:01:00,70.0,19.0,-100.00,East,88,13.0,29.0,14,0.00,,,0.00,1.000000,,2013-05-03 09:01:00,
2013-05-03 02:33:00,69.0,18.0,-100.00,ENE,59,17.0,31.0,14,0.00,,,0.00,1.000000,,2013-05-03 09:33:00,
2013-05-03 02:42:00,69.0,18.0,-100.00,ENE,59,17.0,31.0,14,0.00,,,0.00,1.000000,,2013-05-03 09:42:00,
2013-05-03 02:53:00,69.0,18.0,-100.00,ENE,59,17.0,31.0,14,0.00,,,0.00,1.000000,,2013-05-03 09:53:00,
2013-05-03 03:02:00,69.0,18.0,-100.00,ENE,59,17.0,31.0,14,0.00,,,0.00,1.000000,,2013-05-03 10:02:00,
2013-05-03 03:32:00,67.0,16.0,-100.00,ENE,78,14.0,30.0,14,0.00,,,0.00,1.000000,,2013-05-03 10:32:00,
2013-05-03 03:42:00,67.0,16.0,-100.00,ENE,78,14.0,30.0,14,0.00,,,0.00,1.000000,,2013-05-03 10:42:00,
2013-05-03 03:52:00,67.0,16.0,-100.00,ENE,78,14.0,30.0,14,0.00,,,0.00,1.000000,,2013-05-03 10:52:00,
2013-05-03 04:02:00,67.0,16.0,-100.00,ENE,78,14.0,30.0,14,0.00,,,0.00,1.000000,,2013-05-03 11:02:00,
2013-05-03 04:32:00,67.0,16.0,-100.00,East,80,12.0,29.0,14,0.00,,,0.00,1.000000,,2013-05-03 11:32:00,
2013-05-03 04:42:00,67.0,16.0,-100.00,East,80,12.0,29.0,14,0.00,,,0.00,1.000000,,2013-05-03 11:42:00,
2013-05-03 04:52:00,67.0,16.0,-100.00,East,80,12.0,29.0,14,0.00,,,0.00,1.000000,,2013-05-03 11:52:00,
2013-05-03 05:01:00,67.0,16.0,-100.00,East,80,12.0,29.0,14,0.00,,,0.00,1.000000,,2013-05-03 12:01:00,
2013-05-03 05:32:00,67.0,16.0,-100.00,ENE,67,9.0,21.0,14,0.00,,,-99.99,1.000000,,2013-05-03 12:32:00,
2013-05-03 05:42:00,67.0,16.0,-100.00,ENE,67,9.0,21.0,14,0.00,,,-99.99,1.000000,,2013-05-03 12:42:00,
2013-05-03 05:52:00,67.0,16.0,-100.00,ENE,67,9.0,21.0,14,0.00,,,-99.99,1.000000,,2013-05-03 12:52:00,
2013-05-03 06:01:00,67.0,16.0,-100.00,ENE,67,9.0,21.0,14,0.00,,,-99.99,1.000000,,2013-05-03 13:01:00,
2013-05-03 06:32:00,67.0,15.0,-100.00,NE,46,12.0,22.0,13,0.00,,,0.00,10.000000,,2013-05-03 13:32:00,
2013-05-03 06:42:00,67.0,15.0,-100.00,NE,46,12.0,22.0,13,0.00,,,0.00,10.000000,,2013-05-03 13:42:00,
2013-05-03 06:52:00,67.0,15.0,-100.00,NE,46,12.0,22.0,13,0.00,,,0.00,10.000000,,2013-05-03 13:52:00,
2013-05-03 07:01:00,67.0,15.0,-100.00,NE,46,12.0,22.0,13,0.00,,,0.00,10.000000,,2013-05-03 14:01:00,
2013-05-03 07:32:00,72.0,17.0,-100.00,NNW,334,6.0,21.0,12,0.00,,,0.00,148.000000,,2013-05-03 14:32:00,
2013-05-03 07:42:00,72.0,17.0,-100.00,NNW,334,6.0,21.0,12,0.00,,,0.00,148.000000,,2013-05-03 14:42:00,
2013-05-03 07:52:00,72.0,17.0,-100.00,NNW,334,6.0,21.0,12,0.00,,,0.00,148.000000,,2013-05-03 14:52:00,
2013-05-03 08:01:00,72.0,17.0,-100.00,NNW,334,6.0,21.0,12,0.00,,,0.00,148.000000,,2013-05-03 15:01:00,
2013-05-03 08:32:00,75.0,15.0,-100.00,ENE,66,6.0,15.0,10,0.00,,,0.00,390.000000,,2013-05-03 15:32:00,
2013-05-03 08:43:00,75.0,15.0,-100.00,ENE,66,6.0,15.0,10,0.00,,,0.00,390.000000,,2013-05-03 15:43:00,
2013-05-03 08:53:00,75.0,15.0,-100.00,ENE,66,6.0,15.0,10,0.00,,,0.00,390.000000,,2013-05-03 15:53:00,
2013-05-03 09:03:00,75.0,15.0,-100.00,ENE,66,6.0,15.0,10,0.00,,,0.00,390.000000,,2013-05-03 16:03:00,
2013-05-03 09:33:00,77.0,14.0,-100.00,ESE,102,10.0,17.0,9,0.00,,,0.00,605.000000,,2013-05-03 16:33:00,
2013-05-03 09:42:00,77.0,14.0,-100.00,ESE,102,10.0,17.0,9,0.00,,,0.00,605.000000,,2013-05-03 16:42:00,
2013-05-03 09:52:00,77.0,14.0,-100.00,ESE,102,10.0,17.0,9,0.00,,,0.00,605.000000,,2013-05-03 16:52:00,
2013-05-03 10:02:00,77.0,14.0,-100.00,ESE,102,10.0,17.0,9,0.00,,,0.00,605.000000,,2013-05-03 17:02:00,
2013-05-03 10:32:00,78.0,12.0,-100.00,East,98,11.0,19.0,8,0.00,,,0.00,796.000000,,2013-05-03 17:32:00,
2013-05-03 10:42:00,78.0,12.0,-100.00,East,98,11.0,19.0,8,0.00,,,0.00,796.000000,,2013-05-03 17:42:00,
2013-05-03 10:52:00,78.0,12.0,-100.00,East,98,11.0,19.0,8,0.00,,,0.00,796.000000,,2013-05-03 17:52:00,
2013-05-03 11:01:00,78.0,12.0,-100.00,East,98,11.0,19.0,8,0.00,,,0.00,796.000000,,2013-05-03 18:01:00,
2013-05-03 11:32:00,80.0,10.0,-100.00,ESE,123,12.0,22.0,7,0.00,,,0.00,941.000000,,2013-05-03 18:32:00,
2013-05-03 11:42:00,80.0,10.0,-100.00,ESE,123,12.0,22.0,7,0.00,,,0.00,941.000000,,2013-05-03 18:42:00,
2013-05-03 11:52:00,80.0,10.0,-100.00,ESE,123,12.0,22.0,7,0.00,,,0.00,941.000000,,2013-05-03 18:52:00,
2013-05-03 12:01:00,80.0,10.0,-100.00,ESE,123,12.0,22.0,7,0.00,,,0.00,941.000000,,2013-05-03 19:01:00,
2013-05-03 12:32:00,83.0,13.0,-100.00,SE,128,10.0,19.0,7,0.00,,,0.00,984.000000,,2013-05-03 19:32:00,
2013-05-03 12:42:00,83.0,13.0,-100.00,SE,128,10.0,19.0,7,0.00,,,0.00,984.000000,,2013-05-03 19:42:00,
2013-05-03 12:52:00,83.0,13.0,-100.00,SE,128,10.0,19.0,7,0.00,,,0.00,984.000000,,2013-05-03 19:52:00,
2013-05-03 13:02:00,83.0,13.0,-100.00,SE,128,10.0,19.0,7,0.00,,,0.00,984.000000,,2013-05-03 20:02:00,
2013-05-03 13:32:00,86.0,15.0,-100.00,ESE,122,7.0,16.0,7,0.00,,,0.00,996.000000,,2013-05-03 20:32:00,
2013-05-03 13:42:00,86.0,15.0,-100.00,ESE,122,7.0,16.0,7,0.00,,,0.00,996.000000,,2013-05-03 20:42:00,
2013-05-03 13:52:00,86.0,15.0,-100.00,ESE,122,7.0,16.0,7,0.00,,,0.00,996.000000,,2013-05-03 20:52:00,
2013-05-03 14:01:00,86.0,15.0,-100.00,ESE,122,7.0,16.0,7,0.00,,,0.00,996.000000,,2013-05-03 21:01:00,
2013-05-03 14:33:00,87.0,12.0,-100.00,ESE,109,4.0,13.0,6,0.00,,,0.00,890.000000,,2013-05-03 21:33:00,
2013-05-03 14:43:00,87.0,12.0,-100.00,ESE,109,4.0,13.0,6,0.00,,,0.00,890.000000,,2013-05-03 21:43:00,
2013-05-03 14:53:00,87.0,12.0,-100.00,ESE,109,4.0,13.0,6,0.00,,,0.00,890.000000,,2013-05-03 21:53:00,
2013-05-03 15:02:00,87.0,12.0,-100.00,ESE,109,4.0,13.0,6,0.00,,,0.00,890.000000,,2013-05-03 22:02:00,
2013-05-03 18:32:00,87.0,12.0,-100.00,ESE,122,3.0,8.0,6,-99.99,,,0.00,260.000000,,2013-05-04 01:32:00,
2013-05-03 18:42:00,87.0,12.0,-100.00,ESE,122,3.0,8.0,6,-99.99,,,0.00,260.000000,,2013-05-04 01:42:00,
2013-05-03 18:52:00,87.0,12.0,-100.00,ESE,122,3.0,8.0,6,-99.99,,,0.00,260.000000,,2013-05-04 01:52:00,
2013-05-03 19:02:00,87.0,12.0,-100.00,ESE,122,3.0,8.0,6,-99.99,,,0.00,260.000000,,2013-05-04 02:02:00,
2013-05-03 19:32:00,80.0,10.0,-100.00,NE,50,2.0,5.0,7,0.00,,,0.00,66.000000,,2013-05-04 02:32:00,
2013-05-03 19:42:00,80.0,10.0,-100.00,NE,50,2.0,5.0,7,0.00,,,0.00,66.000000,,2013-05-04 02:42:00,
2013-05-03 19:52:00,80.0,10.0,-100.00,NE,50,2.0,5.0,7,0.00,,,0.00,66.000000,,2013-05-04 02:52:00,
2013-05-03 20:02:00,80.0,10.0,-100.00,NE,50,2.0,5.0,7,0.00,,,0.00,66.000000,,2013-05-04 03:02:00,
2013-05-03 20:33:00,78.0,9.0,-100.00,ENE,74,4.0,9.0,7,0.00,,,0.00,1.000000,,2013-05-04 03:33:00,
2013-05-03 20:43:00,78.0,9.0,-100.00,ENE,74,4.0,9.0,7,0.00,,,0.00,1.000000,,2013-05-04 03:43:00,
2013-05-03 20:52:00,78.0,9.0,-100.00,ENE,74,4.0,9.0,7,0.00,,,0.00,1.000000,,2013-05-04 03:52:00,
2013-05-03 21:02:00,78.0,9.0,-100.00,ENE,74,4.0,9.0,7,0.00,,,0.00,1.000000,,2013-05-04 04:02:00,
2013-05-03 21:33:00,74.0,12.0,-100.00,West,264,3.0,7.0,9,0.00,,,0.00,1.000000,,2013-05-04 04:33:00,
2013-05-03 21:43:00,74.0,12.0,-100.00,West,264,3.0,7.0,9,0.00,,,0.00,1.000000,,2013-05-04 04:43:00,
2013-05-03 21:52:00,74.0,12.0,-100.00,West,264,3.0,7.0,9,0.00,,,0.00,1.000000,,2013-05-04 04:52:00,
2013-05-03 22:02:00,74.0,12.0,-100.00,West,264,3.0,7.0,9,0.00,,,0.00,1.000000,,2013-05-04 05:02:00,
2013-05-03 22:32:00,69.0,12.0,-100.00,North,6,3.0,7.0,11,0.00,,,0.00,1.000000,,2013-05-04 05:32:00,
2013-05-03 22:43:00,69.0,12.0,-100.00,North,6,3.0,7.0,11,0.00,,,0.00,1.000000,,2013-05-04 05:43:00,
2013-05-03 22:52:00,69.0,12.0,-100.00,North,6,3.0,7.0,11,0.00,,,0.00,1.000000,,2013-05-04 05:52:00,
2013-05-03 23:01:00,69.0,12.0,-100.00,North,6,3.0,7.0,11,0.00,,,0.00,1.000000,,2013-05-04 06:01:00,
2013-05-03 23:32:00,70.0,11.0,-100.00,NNE,28,3.0,7.0,10,0.00,,,0.00,1.000000,,2013-05-04 06:32:00,
2013-05-03 23:42:00,70.0,11.0,-100.00,NNE,28,3.0,7.0,10,0.00,,,0.00,1.000000,,2013-05-04 06:42:00,
2013-05-03 23:52:00,70.0,11.0,-100.00,NNE,28,3.0,7.0,10,0.00,,,0.00,1.000000,,2013-05-04 06:52:00,